Stolt Capability — ELSN9 — position and weather

sailwx.info

Track history (hours):
 
Tides and Currents Weather Stations Pressure Air Temp Water Temp Dewpoint Dewpoint Depression Visibility Wind Speed Wind Dir Waves Ship Positions

Stolt Capability

Last reported at 2017-Sep-04 14:24 UTC. Time now 2017-Sep-23 16:33 UTC.
Position N 29°34' W 094°55'.
Warning: this ship's position is 19 days out of date.

Length 176 m; draft 8.7 m.

Type: Ship (hazmat cat B). MMSI: 636010380.

Date/timePositionNaut miles runAvg speedWind from/ knotsBaromVisibWave heightAir tempDewpointWater temp
2017-Sep-04 14:24N 29°34' W 094°55'4 9.8
2017-Sep-04 13:59N 29°37' W 094°59'2 4.2
2017-Sep-04 13:30N 29°37' W 095°01'0 0.0
2017-Sep-04 12:21N 29°37' W 095°01'0 0.0
2017-Sep-04 11:48N 29°37' W 095°01'0 0.0
2017-Sep-04 10:39N 29°37' W 095°01'0 0.0
2017-Sep-04 10:27N 29°37' W 095°01'0 0.0
2017-Sep-04 08:57N 29°37' W 095°01'0 0.0
2017-Sep-04 08:27N 29°37' W 095°01'0 0.0
2017-Sep-04 05:45N 29°37' W 095°01'0 0.0
2017-Sep-04 04:21N 29°37' W 095°01'0 0.0
2017-Sep-03 17:39N 29°37' W 095°01'0 0.0
2017-Sep-03 15:51N 29°37' W 095°01'0 0.0
2017-Sep-03 13:42N 29°37' W 095°01'0 0.0
2017-Sep-03 13:30N 29°37' W 095°01'0 0.0
2017-Sep-03 12:51N 29°37' W 095°01'0 0.0
2017-Sep-03 12:27N 29°37' W 095°01'0 0.0
2017-Sep-03 10:00N 29°37' W 095°01'0 0.0
2017-Sep-03 08:48N 29°37' W 095°01'0 0.0
2017-Sep-03 08:21N 29°37' W 095°01'0 0.0
2017-Sep-03 05:57N 29°37' W 095°01'0 0.0
2017-Sep-03 05:27N 29°37' W 095°01'0 0.0
2017-Sep-03 04:03N 29°37' W 095°01'0 0.1
2017-Sep-03 04:00N 29°37' W 095°01'0 0.0
2017-Sep-03 00:06N 29°37' W 095°01'0 0.0
2017-Sep-02 22:09N 29°37' W 095°01'0 0.0
2017-Sep-02 21:15N 29°37' W 095°01'0 0.0
2017-Sep-02 16:33N 29°37' W 095°01'0 0.0
2017-Sep-02 16:09N 29°37' W 095°01'0 0.0
2017-Sep-02 15:39N 29°37' W 095°01'0 0.0
2017-Sep-02 15:27N 29°37' W 095°01'0 0.0
2017-Sep-02 12:33N 29°37' W 095°01'0 0.1
2017-Sep-02 12:30N 29°37' W 095°01'0 0.0
2017-Sep-02 11:51N 29°37' W 095°01'0 0.0
2017-Sep-02 10:51N 29°37' W 095°01'0 0.0
2017-Sep-02 08:33N 29°37' W 095°01'0 0.0
2017-Sep-02 08:09N 29°37' W 095°01'0 0.0
2017-Sep-02 07:57N 29°37' W 095°01'0 0.0
2017-Sep-02 05:03N 29°37' W 095°01'0 0.0
2017-Sep-02 03:39N 29°37' W 095°01'0 0.0
2017-Sep-02 03:15N 29°37' W 095°01'0 0.0
2017-Sep-02 02:57N 29°37' W 095°01'0 0.0
2017-Sep-02 02:15N 29°37' W 095°01'0 0.0
2017-Sep-02 01:09N 29°37' W 095°01'0 0.0
2017-Sep-01 23:15N 29°37' W 095°01'0 0.0
2017-Sep-01 20:57N 29°37' W 095°01'0 0.0
2017-Sep-01 20:21N 29°37' W 095°01'0 0.8
2017-Sep-01 20:01N 29°37' W 095°01'3 6.5
2017-Sep-01 19:31N 29°37' W 094°57'510.5
2017-Sep-01 19:00N 29°32' W 094°54'23 1.6
2017-Sep-01 04:34N 29°14' W 094°38'0 0.0
2017-Sep-01 04:16N 29°14' W 094°38'0 0.0
2017-Sep-01 04:01N 29°14' W 094°38'  
Track history (hours):
 
Tides and Currents Weather Stations Pressure Air Temp Water Temp Dewpoint Dewpoint Depression Visibility Wind Speed Wind Dir Waves Ship Positions

Stolt Capability

Last reported at 2017-Sep-04 14:24 UTC. Time now 2017-Sep-23 16:33 UTC.
Position N 29°34' W 094°55'.
Warning: this ship's position is 19 days out of date.

Length 176 m; draft 8.7 m.

Type: Ship (hazmat cat B). MMSI: 636010380.

Date/timePositionNaut miles runAvg speedWind from/ knotsBaromVisibWave heightAir tempDewpointWater temp
2017-Sep-04 14:24N 29°34' W 094°55'4 9.8
2017-Sep-04 13:59N 29°37' W 094°59'2 4.2
2017-Sep-04 13:30N 29°37' W 095°01'0 0.0
2017-Sep-04 12:21N 29°37' W 095°01'0 0.0
2017-Sep-04 11:48N 29°37' W 095°01'0 0.0
2017-Sep-04 10:39N 29°37' W 095°01'0 0.0
2017-Sep-04 10:27N 29°37' W 095°01'0 0.0
2017-Sep-04 08:57N 29°37' W 095°01'0 0.0
2017-Sep-04 08:27N 29°37' W 095°01'0 0.0
2017-Sep-04 05:45N 29°37' W 095°01'0 0.0
2017-Sep-04 04:21N 29°37' W 095°01'0 0.0
2017-Sep-03 17:39N 29°37' W 095°01'0 0.0
2017-Sep-03 15:51N 29°37' W 095°01'0 0.0
2017-Sep-03 13:42N 29°37' W 095°01'0 0.0
2017-Sep-03 13:30N 29°37' W 095°01'0 0.0
2017-Sep-03 12:51N 29°37' W 095°01'0 0.0
2017-Sep-03 12:27N 29°37' W 095°01'0 0.0
2017-Sep-03 10:00N 29°37' W 095°01'0 0.0
2017-Sep-03 08:48N 29°37' W 095°01'0 0.0
2017-Sep-03 08:21N 29°37' W 095°01'0 0.0
2017-Sep-03 05:57N 29°37' W 095°01'0 0.0
2017-Sep-03 05:27N 29°37' W 095°01'0 0.0
2017-Sep-03 04:03N 29°37' W 095°01'0 0.1
2017-Sep-03 04:00N 29°37' W 095°01'0 0.0
2017-Sep-03 00:06N 29°37' W 095°01'0 0.0
2017-Sep-02 22:09N 29°37' W 095°01'0 0.0
2017-Sep-02 21:15N 29°37' W 095°01'0 0.0
2017-Sep-02 16:33N 29°37' W 095°01'0 0.0
2017-Sep-02 16:09N 29°37' W 095°01'0 0.0
2017-Sep-02 15:39N 29°37' W 095°01'0 0.0
2017-Sep-02 15:27N 29°37' W 095°01'0 0.0
2017-Sep-02 12:33N 29°37' W 095°01'0 0.1
2017-Sep-02 12:30N 29°37' W 095°01'0 0.0
2017-Sep-02 11:51N 29°37' W 095°01'0 0.0
2017-Sep-02 10:51N 29°37' W 095°01'0 0.0
2017-Sep-02 08:33N 29°37' W 095°01'0 0.0
2017-Sep-02 08:09N 29°37' W 095°01'0 0.0
2017-Sep-02 07:57N 29°37' W 095°01'0 0.0
2017-Sep-02 05:03N 29°37' W 095°01'0 0.0
2017-Sep-02 03:39N 29°37' W 095°01'0 0.0
2017-Sep-02 03:15N 29°37' W 095°01'0 0.0
2017-Sep-02 02:57N 29°37' W 095°01'0 0.0
2017-Sep-02 02:15N 29°37' W 095°01'0 0.0
2017-Sep-02 01:09N 29°37' W 095°01'0 0.0
2017-Sep-01 23:15N 29°37' W 095°01'0 0.0
2017-Sep-01 20:57N 29°37' W 095°01'0 0.0
2017-Sep-01 20:21N 29°37' W 095°01'0 0.8
2017-Sep-01 20:01N 29°37' W 095°01'3 6.5
2017-Sep-01 19:31N 29°37' W 094°57'510.5
2017-Sep-01 19:00N 29°32' W 094°54'23 1.6
2017-Sep-01 04:34N 29°14' W 094°38'0 0.0
2017-Sep-01 04:16N 29°14' W 094°38'0 0.0
2017-Sep-01 04:01N 29°14' W 094°38'  

Dump ship's entire track history